Hlavní strana
METAR-TAF:

METAR-TAF

Letiště :

Mezinárodní letiště Sunan

Pchjongjang, Severní Korea

zeměpisná šířka: 39-02N, zeměpisná délka: 125-47E, výška: 36 m

METAR: chybějící

Čas: 08:31 (00:01 UTC)

Předpověď počasí

Zpráva byla vytvořena před 3 hodinami a 1 minutami, v 21:00 UTC
Předpověď platná od 16 v 00 UTC do 16 v 24 UTC
Severovýchodní vítr 6 kt
Viditelnost 10 km a více
Žádná oblačnost pod 1500 m, nevyskytují se cumulonimby.

TAF: ZKPY 152100Z 1600/1624 04003MPS CAVOK TX17/1606Z TN03/1621Z

Stav a předpovědi počasí z více než 4 000 letišť (zprávy METAR a TAF).

Červené a žluté tečky na mapě představují dostupné meteorologické stanice.

Když kurzor umístíte na tečku, zobrazí se název stanice.

Pak kliknutím zobrazíte stav a předpověď počasí.

Chcete-li změnit mapu, kliknutím na zelené tlačítko se znaménkem +mapu přiblížíte, kliknutím na zelené tlačítko se znaménkem – mapu oddálíte a kliknutím na zelené šipky přejdete na sousední mapy.


METAR-TAF: